Crossville, TN (38572)

11:03 AM CDT on October 21, 2014 (GMT -0500)
Stone Memorial High School | Change Station
CLOSE
Current Station
Personal Weather Station
Location: Crossville, TN
Elevation: 1788 ft
Nearby Weather Stations

Elev 1788 ft 35.99 °N, 85.01 °W | Updated 6 minutes ago

Clear
Clear
65.6 °F
Feels Like 65.6 °F
N
8.0
Wind Variable Wind from NW
Gusts 15.0 mph

Today
High -- | Low -- °F
--% Chance of Precip.
Yesterday
High -- | Low -- °F
Precip. -- in
6:51 AM 5:56 PM
Waning Crescent, 5% visible
Pressure 30.04 in
Visibility 10.0 miles
Clouds Few 3500 ft
Dew Point 44 °F
Humidity 46%
Rainfall 0.00 in
Snow Depth Not available.
UV 5 out of 12
Pollen 2.20 out of 12
Air Quality Not available.
Flu Activity Not available.
METAR KCSV 211553Z AUTO 33010G17KT 300V360 10SM FEW035 17/04 A3006 RMK AO2 SLP172 T01670044

More Conditions Fewer Conditions

Pressure 30.04 in
Visibility 10.0 miles
Clouds Few 3500 ft
Dew Point 44 °F
Humidity 46%
Rainfall 0.00 in
Snow Depth Not available.
UV 5 out of 12
Pollen 2.20 out of 12
Air Quality Not available.
Flu Activity Not available.
METAR KCSV 211553Z AUTO 33010G17KT 300V360 10SM FEW035 17/04 A3006 RMK AO2 SLP172 T01670044

More Conditions Fewer Conditions

10-Day Weather Forecast

Almanac

Astronomy

Oct. 21, 2014 Rise Set
Actual Time 6:51 AM CDT 5:56 PM CDT
Civil Twilight 6:25 AM CDT 6:22 PM CDT
Nautical Twilight 5:56 AM CDT 6:52 PM CDT
Astronomical Twilight 5:26 AM CDT 7:21 PM CDT
Moon 4:39 AM CDT 4:46 PM CDT
Length of Visible Light 11h 56m
Length of Day
11h 04m
Tomorrow will be 2m 9s shorter.
Waning Crescent, 5% of the Moon is Illuminated
Today
Waning Crescent
Oct 23
New
Oct 30
First Quarter
Nov 6
Full
Nov 14
Last Quarter

Today's Extremes

State Highs State Lows

Community

WunderPhotos

Upload Photos

1,763,704 photos uploaded!

WunderBlogs® & News

Nearby

Snow Depth

Station Depth Elevation
No new snow has been reported.

Earthquake Activity

City Distance Mag. Time & Date
No recent earthquake activity has been reported nearby.
Minimum magnitude displayed is 2.5.

Coastal Water Temperatures

Place Temperature
No Stations Reporting

Nearby Weather Stations